Sterlington, Louisiana
Current Conditions -  °F | °C
As of 6:55 AM on Friday 19 Dec 2014 (Local Time) from KBQP Reporting Station
Overcast Overcast  
Wind Chill: 44°   Ceiling: 3200
Heat Index: 46°   Visibility: 10mi
Dew Point: 42°   Wind: 5mph
Humidity: 86%   Direction: 50°NE
Pressure: 30.18"   Gusts: NA
Location:  32.7°N, 92.09°W
Report Text: KBQP 191255Z AUTO 05004KT 10SM OVC032 08/06 A3018 RMK AO2 LTG DSNT SW T00800058
Loading
Personal Weather Stations






























Interactive Weather Map New forecast layout! Learn more

10-Day Weather Forecast

Advertisements
Track Severe Weather on mobile